Time;durP1;ratioP1;P1;durP2;ratioP2;P2;SDS_P1;SDS_P2;PMS_P1;PMS_P2;Temp;Humidity;BMP_temperature;BMP_pressure;BME280_temperature;BME280_humidity;BME280_pressure;Samples;Min_cycle;Max_cycle;Signal;HPM_P1;HPM_P2
2021/07/30 00:00:30;;;;;;;11.15;3.75;;;17.90;99.90;;;;;;2113705;28;20027;-68
2021/07/30 00:01:30;;;;;;;7.78;3.13;;;17.90;99.90;;;;;;2109710;28;20565;-68
2021/07/30 00:02:32;;;;;;;4.65;3.00;;;17.90;99.90;;;;;;2105155;28;20056;-68
2021/07/30 00:03:32;;;;;;;6.15;3.25;;;17.80;99.90;;;;;;2104622;28;20020;-68
2021/07/30 00:04:33;;;;;;;6.95;3.30;;;17.90;99.90;;;;;;2105659;28;20039;-69
2021/07/30 00:05:34;;;;;;;5.10;3.45;;;17.80;99.90;;;;;;2104977;28;20032;-68
2021/07/30 00:06:34;;;;;;;8.00;3.45;;;17.80;99.90;;;;;;2105392;28;20077;-68
2021/07/30 00:07:35;;;;;;;4.43;3.20;;;17.80;99.90;;;;;;2105302;28;20024;-68
2021/07/30 00:08:36;;;;;;;5.78;3.25;;;17.80;99.90;;;;;;2108736;28;20020;-68
2021/07/30 00:09:36;;;;;;;5.35;3.08;;;17.80;99.90;;;;;;2109698;28;20538;-68
2021/07/30 00:10:37;;;;;;;6.45;3.08;;;17.80;99.90;;;;;;2105471;28;20024;-68
2021/07/30 00:11:39;;;;;;;7.78;3.67;;;17.80;99.90;;;;;;2104993;28;20035;-68
2021/07/30 00:12:39;;;;;;;5.20;3.45;;;17.80;99.90;;;;;;2105190;28;20475;-68
2021/07/30 00:13:40;;;;;;;8.45;3.67;;;17.80;99.90;;;;;;2105084;28;20510;-68
2021/07/30 00:14:40;;;;;;;4.75;2.88;;;17.70;99.90;;;;;;2105388;28;20110;-68
2021/07/30 00:15:41;;;;;;;8.82;3.30;;;17.70;99.90;;;;;;2107344;28;20031;-68
2021/07/30 00:16:41;;;;;;;7.47;3.67;;;17.80;99.90;;;;;;2104759;28;20025;-69
2021/07/30 00:17:42;;;;;;;4.97;3.47;;;17.80;99.90;;;;;;2104734;28;20580;-69
2021/07/30 00:18:42;;;;;;;7.57;3.38;;;17.70;99.90;;;;;;2104765;28;20035;-69
2021/07/30 00:19:43;;;;;;;6.30;2.95;;;17.80;99.90;;;;;;2105359;28;20055;-69
2021/07/30 00:20:43;;;;;;;6.78;3.45;;;17.80;99.90;;;;;;2104360;28;20069;-68
2021/07/30 00:21:44;;;;;;;9.20;4.22;;;17.70;99.90;;;;;;2101028;28;20082;-68
2021/07/30 00:22:45;;;;;;;9.70;3.72;;;17.70;99.90;;;;;;2104637;28;20491;-68
2021/07/30 00:23:45;;;;;;;7.00;3.83;;;17.70;99.90;;;;;;2112431;28;20058;-68
2021/07/30 00:24:46;;;;;;;7.22;3.55;;;17.70;99.90;;;;;;2112898;28;20621;-68
2021/07/30 00:25:46;;;;;;;6.95;2.90;;;17.70;99.90;;;;;;2112943;28;20024;-68
2021/07/30 00:26:48;;;;;;;7.20;3.00;;;17.70;99.90;;;;;;2112774;28;20125;-69
2021/07/30 00:27:49;;;;;;;6.35;3.65;;;17.70;99.90;;;;;;2097645;28;20036;-68
2021/07/30 00:28:50;;;;;;;5.88;3.50;;;17.70;99.90;;;;;;2105250;28;20031;-68
2021/07/30 00:29:50;;;;;;;5.47;3.45;;;17.60;99.90;;;;;;2105057;28;20032;-69
2021/07/30 00:30:51;;;;;;;7.05;3.70;;;17.70;99.90;;;;;;2105183;28;20110;-68
2021/07/30 00:31:51;;;;;;;5.88;3.42;;;17.70;99.90;;;;;;2104691;28;20085;-68
2021/07/30 00:32:52;;;;;;;6.80;3.15;;;17.70;99.90;;;;;;2105650;28;20024;-68
2021/07/30 00:33:52;;;;;;;5.70;3.20;;;17.60;99.90;;;;;;2096628;28;20530;-68
2021/07/30 00:34:53;;;;;;;5.32;3.65;;;17.70;99.90;;;;;;2103628;28;20371;-68
2021/07/30 00:35:55;;;;;;;8.73;3.50;;;17.60;99.90;;;;;;2104207;28;20026;-68
2021/07/30 00:36:55;;;;;;;5.95;3.50;;;17.60;99.90;;;;;;2104825;28;20023;-68
2021/07/30 00:37:56;;;;;;;6.15;3.10;;;17.60;99.90;;;;;;2105262;28;20031;-68
2021/07/30 00:38:57;;;;;;;6.20;3.35;;;17.60;99.90;;;;;;2106279;28;20020;-68
2021/07/30 00:39:58;;;;;;;5.55;3.20;;;17.60;99.90;;;;;;2106330;28;20107;-68
2021/07/30 00:41:00;;;;;;;6.22;3.22;;;17.60;99.90;;;;;;2104873;28;20028;-68
2021/07/30 00:42:02;;;;;;;5.30;3.17;;;17.60;99.90;;;;;;2103066;28;20110;-68
2021/07/30 00:43:05;;;;;;;6.45;3.58;;;17.60;99.90;;;;;;2098312;28;20192;-68
2021/07/30 00:44:07;;;;;;;6.40;3.80;;;17.60;99.90;;;;;;2104931;28;20020;-68
2021/07/30 00:45:07;;;;;;;6.93;3.10;;;17.60;99.90;;;;;;2104864;28;20077;-68
2021/07/30 00:46:08;;;;;;;7.45;3.38;;;17.60;99.90;;;;;;2105320;28;20031;-68
2021/07/30 00:47:09;;;;;;;4.30;3.05;;;17.60;99.90;;;;;;2108060;28;20028;-68
2021/07/30 00:48:11;;;;;;;7.38;3.53;;;17.60;99.90;;;;;;2113443;28;20069;-68
2021/07/30 00:49:12;;;;;;;7.22;3.67;;;17.60;99.90;;;;;;2106473;28;20023;-68
2021/07/30 00:50:12;;;;;;;7.55;4.25;;;17.60;99.90;;;;;;2105021;28;20028;-68
2021/07/30 00:51:14;;;;;;;9.00;3.55;;;17.60;99.90;;;;;;2104168;28;20471;-68
2021/07/30 00:52:15;;;;;;;5.43;3.20;;;17.60;99.90;;;;;;2104815;28;20073;-68
2021/07/30 00:53:17;;;;;;;5.32;3.50;;;17.50;99.90;;;;;;2104640;28;20028;-68
2021/07/30 00:54:19;;;;;;;4.97;3.28;;;17.60;99.90;;;;;;2104984;28;20024;-68
2021/07/30 00:55:19;;;;;;;8.52;3.50;;;17.50;99.90;;;;;;2106510;28;20484;-68
2021/07/30 00:56:21;;;;;;;8.63;3.88;;;17.50;99.90;;;;;;2107948;27;20366;-68
2021/07/30 00:57:22;;;;;;;8.15;3.47;;;17.50;99.90;;;;;;2109759;28;20028;-69
2021/07/30 00:58:24;;;;;;;7.22;3.33;;;17.50;99.90;;;;;;2113461;28;20077;-69
2021/07/30 00:59:25;;;;;;;6.80;3.70;;;17.50;99.90;;;;;;2113180;28;20030;-68
2021/07/30 01:00:25;;;;;;;6.90;3.60;;;17.50;99.90;;;;;;2113491;28;20480;-68
2021/07/30 01:01:26;;;;;;;6.22;3.63;;;17.60;99.90;;;;;;2113231;28;20032;-68
2021/07/30 01:02:27;;;;;;;8.88;4.15;;;17.50;99.90;;;;;;2105918;28;20493;-68
2021/07/30 01:03:28;;;;;;;10.50;4.25;;;17.50;99.90;;;;;;2104303;28;20066;-68
2021/07/30 01:04:29;;;;;;;7.32;3.80;;;17.50;99.90;;;;;;2104998;28;20031;-69
2021/07/30 01:05:31;;;;;;;4.97;3.33;;;17.50;99.90;;;;;;2104653;28;20012;-68
2021/07/30 01:06:32;;;;;;;5.32;3.55;;;17.50;99.90;;;;;;2106862;28;20389;-68
2021/07/30 01:07:33;;;;;;;5.53;3.35;;;17.50;99.90;;;;;;2107077;28;20024;-68
2021/07/30 01:08:33;;;;;;;8.07;4.22;;;17.50;99.90;;;;;;2109029;28;20019;-68
2021/07/30 01:09:34;;;;;;;6.60;3.53;;;17.50;99.90;;;;;;2111081;28;20035;-68
2021/07/30 01:10:35;;;;;;;9.35;3.95;;;17.50;99.90;;;;;;2105632;28;20027;-68
2021/07/30 01:11:35;;;;;;;8.30;3.92;;;17.50;99.90;;;;;;2104147;28;20043;-69
2021/07/30 01:12:36;;;;;;;8.40;4.25;;;17.50;99.90;;;;;;2104417;28;20028;-68
2021/07/30 01:13:36;;;;;;;5.53;3.22;;;17.50;99.90;;;;;;2105055;28;20419;-69
2021/07/30 01:14:37;;;;;;;6.82;3.38;;;17.60;99.90;;;;;;2104400;28;20091;-68
2021/07/30 01:15:37;;;;;;;7.50;4.00;;;17.50;99.90;;;;;;2104628;28;20042;-68
2021/07/30 01:16:39;;;;;;;8.57;3.22;;;17.60;99.90;;;;;;2104785;28;20391;-68
2021/07/30 01:17:39;;;;;;;8.32;3.78;;;17.60;99.90;;;;;;2104701;28;20069;-68
2021/07/30 01:18:40;;;;;;;11.55;3.85;;;17.60;99.90;;;;;;2104884;28;20521;-69
2021/07/30 01:19:40;;;;;;;8.20;3.47;;;17.60;99.90;;;;;;2104721;28;20103;-69
2021/07/30 01:20:43;;;;;;;11.32;4.10;;;17.60;99.90;;;;;;2105090;28;20036;-69
2021/07/30 01:21:47;;;;;;;7.90;3.63;;;17.50;99.90;;;;;;2113125;28;20023;-68
2021/07/30 01:22:55;;;;;;;16.52;4.50;;;17.60;99.90;;;;;;2104959;28;20028;-68
2021/07/30 01:23:56;;;;;;;11.27;4.05;;;17.60;99.90;;;;;;2104819;28;20552;-68
2021/07/30 01:24:57;;;;;;;8.55;3.72;;;17.60;99.90;;;;;;2103652;28;20847;-68
2021/07/30 01:25:57;;;;;;;6.53;3.65;;;17.60;99.90;;;;;;2096438;28;20036;-68
2021/07/30 01:26:58;;;;;;;5.90;3.63;;;17.60;99.90;;;;;;2101543;28;20047;-68
2021/07/30 01:27:59;;;;;;;6.75;3.72;;;17.70;99.90;;;;;;2103267;28;20379;-68
2021/07/30 01:28:59;;;;;;;8.75;3.80;;;17.60;99.90;;;;;;2101199;28;20043;-68
2021/07/30 01:30:00;;;;;;;6.43;4.00;;;17.60;99.90;;;;;;2104438;28;20390;-69
2021/07/30 01:31:01;;;;;;;8.02;3.42;;;17.60;99.90;;;;;;2104489;28;20032;-68
2021/07/30 01:32:02;;;;;;;6.43;3.28;;;17.70;99.90;;;;;;2105176;28;20024;-68
2021/07/30 01:33:03;;;;;;;8.70;3.50;;;17.70;99.90;;;;;;2102821;28;20027;-68
2021/07/30 01:34:03;;;;;;;7.05;3.63;;;17.70;99.90;;;;;;2111469;28;20068;-68
2021/07/30 01:35:04;;;;;;;14.68;4.45;;;17.70;99.90;;;;;;2110086;28;20031;-68
2021/07/30 01:36:05;;;;;;;9.23;4.03;;;17.70;99.90;;;;;;2104569;28;20093;-68
2021/07/30 01:37:05;;;;;;;6.60;3.60;;;17.70;99.90;;;;;;2104683;28;20433;-68
2021/07/30 01:38:06;;;;;;;7.20;3.55;;;17.70;99.90;;;;;;2104723;28;20047;-68
2021/07/30 01:39:07;;;;;;;7.60;3.85;;;17.80;99.90;;;;;;2104380;28;20023;-68
2021/07/30 01:40:09;;;;;;;7.50;3.75;;;17.80;99.90;;;;;;2105116;28;20024;-68
2021/07/30 01:41:10;;;;;;;8.13;3.88;;;17.80;99.90;;;;;;2104145;28;20031;-69
2021/07/30 01:42:10;;;;;;;5.82;3.25;;;17.80;99.90;;;;;;2104504;28;20043;-68
2021/07/30 01:43:11;;;;;;;6.20;3.70;;;17.80;99.90;;;;;;2104152;28;20494;-68
2021/07/30 01:44:12;;;;;;;7.97;4.00;;;17.80;99.90;;;;;;2104711;28;20024;-68
2021/07/30 01:45:13;;;;;;;10.25;4.18;;;17.90;99.90;;;;;;2104401;28;20016;-68
2021/07/30 01:46:16;;;;;;;7.28;3.67;;;17.90;99.90;;;;;;2104040;28;20038;-68
2021/07/30 01:47:20;;;;;;;8.65;3.72;;;17.90;99.90;;;;;;2101920;28;20024;-68
2021/07/30 01:48:20;;;;;;;6.13;3.78;;;17.90;99.90;;;;;;2104134;28;20474;-68
2021/07/30 01:49:21;;;;;;;11.93;3.50;;;17.90;99.90;;;;;;2103968;28;20020;-68
2021/07/30 01:50:21;;;;;;;10.70;3.78;;;17.90;99.90;;;;;;2104702;28;20121;-68
2021/07/30 01:51:22;;;;;;;6.72;3.88;;;17.90;99.90;;;;;;2104356;28;20035;-68
2021/07/30 01:52:22;;;;;;;7.82;3.63;;;17.90;99.90;;;;;;2104390;28;20070;-68
2021/07/30 01:53:23;;;;;;;8.70;3.47;;;17.90;99.90;;;;;;2104251;28;20424;-68
2021/07/30 01:54:24;;;;;;;6.68;3.65;;;18.00;99.90;;;;;;2112543;28;20095;-68
2021/07/30 01:55:24;;;;;;;6.50;3.22;;;18.00;99.90;;;;;;2106509;28;20475;-68
2021/07/30 01:56:25;;;;;;;7.10;3.83;;;18.00;99.90;;;;;;2105240;28;20035;-69
2021/07/30 01:57:27;;;;;;;8.85;3.63;;;18.00;99.90;;;;;;2104299;28;20020;-69
2021/07/30 01:58:28;;;;;;;5.45;3.50;;;18.00;99.90;;;;;;2104856;28;20401;-68
2021/07/30 01:59:28;;;;;;;6.47;3.58;;;18.00;99.90;;;;;;2104589;28;20139;-68
2021/07/30 02:00:29;;;;;;;6.72;3.38;;;18.00;99.90;;;;;;2104640;28;20062;-69
2021/07/30 02:01:30;;;;;;;6.65;3.67;;;18.00;99.90;;;;;;2105488;28;20107;-68
2021/07/30 02:02:33;;;;;;;7.63;3.25;;;18.00;99.90;;;;;;2109696;28;20020;-68
2021/07/30 02:03:33;;;;;;;8.52;3.63;;;18.00;99.90;;;;;;2108026;28;20016;-68
2021/07/30 02:04:34;;;;;;;8.60;3.72;;;18.10;99.90;;;;;;2105167;28;20020;-69
2021/07/30 02:05:37;;;;;;;6.97;3.63;;;18.10;99.90;;;;;;2105787;28;20106;-68
2021/07/30 02:06:38;;;;;;;6.70;3.53;;;18.10;99.90;;;;;;2099418;28;20074;-68
2021/07/30 02:07:38;;;;;;;7.43;3.72;;;18.10;99.90;;;;;;2104835;28;20111;-68
2021/07/30 02:08:39;;;;;;;6.03;3.50;;;18.10;99.90;;;;;;2105906;28;20528;-68
2021/07/30 02:09:39;;;;;;;6.82;3.80;;;18.10;99.90;;;;;;2105466;28;20082;-68
2021/07/30 02:10:40;;;;;;;9.50;3.63;;;18.10;99.90;;;;;;2105472;28;20410;-68
2021/07/30 02:11:50;;;;;;;8.43;3.47;;;18.10;99.90;;;;;;2104579;28;20085;-68
2021/07/30 02:14:16;;;;;;;10.88;3.85;;;18.10;99.90;;;;;;2111405;28;20035;-68
2021/07/30 02:15:17;;;;;;;7.63;4.03;;;18.10;99.90;;;;;;2105067;28;20379;-68
2021/07/30 02:16:17;;;;;;;10.60;3.78;;;18.20;99.90;;;;;;2105162;28;20459;-68
2021/07/30 02:17:18;;;;;;;11.10;4.07;;;18.10;99.90;;;;;;2112123;28;20077;-68
2021/07/30 02:18:18;;;;;;;8.10;3.65;;;18.10;99.90;;;;;;2114092;28;20063;-68
2021/07/30 02:19:20;;;;;;;9.35;3.53;;;18.20;99.90;;;;;;2108195;28;20039;-68
2021/07/30 02:20:21;;;;;;;5.80;4.15;;;18.20;99.90;;;;;;2104823;28;20024;-68
2021/07/30 02:21:22;;;;;;;6.30;3.08;;;18.20;99.90;;;;;;2105474;28;20643;-68
2021/07/30 02:22:22;;;;;;;7.03;3.65;;;18.20;99.90;;;;;;2105514;28;20068;-68
2021/07/30 02:23:23;;;;;;;10.43;3.70;;;18.20;99.90;;;;;;2105494;28;20024;-68
2021/07/30 02:24:24;;;;;;;6.30;3.10;;;18.20;99.90;;;;;;2105552;28;20052;-68
2021/07/30 02:25:24;;;;;;;7.85;3.38;;;18.20;99.90;;;;;;2105667;28;20751;-68
2021/07/30 02:26:25;;;;;;;7.78;3.33;;;18.20;99.90;;;;;;2106222;28;20499;-68
2021/07/30 02:27:25;;;;;;;8.32;3.40;;;18.20;99.90;;;;;;2108028;28;20111;-68
2021/07/30 02:28:26;;;;;;;7.68;3.78;;;18.30;99.90;;;;;;2105592;28;20107;-68
2021/07/30 02:29:26;;;;;;;7.40;3.25;;;18.30;99.90;;;;;;2105965;28;20032;-68
2021/07/30 02:30:27;;;;;;;8.52;3.55;;;18.30;99.90;;;;;;2105547;28;20058;-68
2021/07/30 02:31:28;;;;;;;8.45;3.22;;;18.30;99.90;;;;;;2107433;28;20020;-68
2021/07/30 02:32:28;;;;;;;8.48;3.33;;;18.30;99.90;;;;;;2109971;28;20032;-69
2021/07/30 02:33:29;;;;;;;14.52;3.88;;;18.30;99.90;;;;;;2100947;28;20478;-68
2021/07/30 02:34:29;;;;;;;9.43;4.20;;;18.30;99.90;;;;;;2111068;28;20038;-68
2021/07/30 02:35:31;;;;;;;5.50;3.60;;;18.30;99.90;;;;;;2108653;28;20024;-68
2021/07/30 02:36:31;;;;;;;6.68;3.60;;;18.40;99.90;;;;;;2105415;28;20031;-68
2021/07/30 02:37:32;;;;;;;8.15;3.65;;;18.40;99.90;;;;;;2105448;28;20035;-68
2021/07/30 02:38:32;;;;;;;8.65;3.33;;;18.40;99.90;;;;;;2105680;28;20028;-68
2021/07/30 02:39:33;;;;;;;7.45;3.10;;;18.40;99.90;;;;;;2105920;28;20474;-69
2021/07/30 02:40:34;;;;;;;6.18;3.40;;;18.40;99.90;;;;;;2109294;28;20027;-69
2021/07/30 02:41:35;;;;;;;7.68;3.63;;;18.40;99.90;;;;;;2099196;28;20013;-68
2021/07/30 02:42:35;;;;;;;7.70;3.60;;;18.40;99.90;;;;;;2113598;28;20053;-69
2021/07/30 02:43:36;;;;;;;8.13;3.30;;;18.40;99.90;;;;;;2115817;28;20091;-68
2021/07/30 02:44:36;;;;;;;6.85;4.00;;;18.40;99.90;;;;;;2115645;28;20110;-68
2021/07/30 02:45:37;;;;;;;11.48;3.97;;;18.40;99.90;;;;;;2109959;28;20438;-68
2021/07/30 02:46:37;;;;;;;6.82;3.53;;;18.40;99.90;;;;;;2107370;28;20020;-68
2021/07/30 02:47:38;;;;;;;6.15;3.22;;;18.40;99.90;;;;;;2107116;28;20056;-68
2021/07/30 02:48:39;;;;;;;5.68;3.25;;;18.40;99.90;;;;;;2107232;28;20043;-69
2021/07/30 02:49:39;;;;;;;7.57;3.45;;;18.40;99.90;;;;;;2106794;28;20023;-68
2021/07/30 02:50:40;;;;;;;8.32;3.15;;;18.50;99.90;;;;;;2106870;28;20020;-68
2021/07/30 02:51:40;;;;;;;7.15;3.25;;;18.40;99.90;;;;;;2106218;28;20126;-68
2021/07/30 02:52:41;;;;;;;11.93;4.47;;;18.50;99.90;;;;;;2106363;28;20028;-68
2021/07/30 02:53:42;;;;;;;10.70;3.30;;;18.50;99.90;;;;;;2106471;28;20456;-68
2021/07/30 02:54:42;;;;;;;9.15;3.50;;;18.50;99.90;;;;;;2106627;28;20046;-69
2021/07/30 02:55:46;;;;;;;5.50;3.17;;;18.50;99.90;;;;;;2106690;28;20029;-68
2021/07/30 02:56:46;;;;;;;8.07;3.08;;;18.50;99.90;;;;;;2106292;28;20031;-68
2021/07/30 02:57:47;;;;;;;7.28;2.72;;;18.50;99.90;;;;;;2106216;28;20073;-68
2021/07/30 02:58:47;;;;;;;6.47;3.53;;;18.50;99.90;;;;;;2107204;28;20104;-68
2021/07/30 02:59:48;;;;;;;7.18;3.17;;;18.50;99.90;;;;;;2107054;28;20028;-68
2021/07/30 03:00:48;;;;;;;10.43;3.53;;;18.50;99.90;;;;;;2105730;28;20352;-69
2021/07/30 03:01:49;;;;;;;7.72;3.13;;;18.50;99.90;;;;;;2105319;28;20055;-69
2021/07/30 03:02:49;;;;;;;5.10;3.00;;;18.50;99.90;;;;;;2105709;28;20024;-69
2021/07/30 03:03:50;;;;;;;9.57;3.22;;;18.60;99.90;;;;;;2105600;28;20040;-68
2021/07/30 03:04:50;;;;;;;7.50;3.45;;;18.50;99.90;;;;;;2105427;28;20024;-68
2021/07/30 03:05:51;;;;;;;6.78;3.42;;;18.50;99.90;;;;;;2097906;28;20032;-69
2021/07/30 03:06:52;;;;;;;7.30;3.63;;;18.50;99.90;;;;;;2104447;28;20039;-68
2021/07/30 03:07:52;;;;;;;8.93;3.58;;;18.50;99.90;;;;;;2106096;28;20058;-69
2021/07/30 03:08:55;;;;;;;9.85;3.10;;;18.50;99.90;;;;;;2106231;28;20035;-68
2021/07/30 03:09:55;;;;;;;8.48;3.08;;;18.60;99.90;;;;;;2104946;28;20430;-68
2021/07/30 03:10:56;;;;;;;5.22;3.20;;;18.50;99.90;;;;;;2105771;28;20819;-68
2021/07/30 03:11:57;;;;;;;9.48;3.40;;;18.60;99.90;;;;;;2106796;28;20476;-68
2021/07/30 03:12:57;;;;;;;12.07;3.40;;;18.60;99.90;;;;;;2104929;28;20020;-68
2021/07/30 03:13:58;;;;;;;8.50;3.25;;;18.50;99.90;;;;;;2105298;28;20073;-69
2021/07/30 03:14:58;;;;;;;9.77;3.33;;;18.60;99.90;;;;;;2105667;28;20134;-68
2021/07/30 03:15:59;;;;;;;5.22;2.90;;;18.50;99.90;;;;;;2105927;28;20024;-69
2021/07/30 03:16:59;;;;;;;7.03;3.90;;;18.60;99.90;;;;;;2105699;28;20542;-69
2021/07/30 03:18:00;;;;;;;6.53;3.13;;;18.50;99.90;;;;;;2106414;28;20020;-68
2021/07/30 03:19:00;;;;;;;6.90;3.30;;;18.50;99.90;;;;;;2113071;28;20024;-69
2021/07/30 03:20:01;;;;;;;8.40;3.78;;;18.50;99.90;;;;;;2105690;28;20456;-68
2021/07/30 03:21:01;;;;;;;9.68;3.83;;;18.50;99.90;;;;;;2105784;28;20024;-68
2021/07/30 03:22:02;;;;;;;10.00;2.92;;;18.50;99.90;;;;;;2112763;28;20045;-68
2021/07/30 03:23:03;;;;;;;9.25;3.53;;;18.50;99.90;;;;;;2113704;28;20016;-69
2021/07/30 03:24:04;;;;;;;5.18;3.42;;;18.50;99.90;;;;;;2114432;28;20055;-69
2021/07/30 03:25:05;;;;;;;4.85;3.13;;;18.50;99.90;;;;;;2113551;28;20490;-68
2021/07/30 03:26:05;;;;;;;4.68;2.90;;;18.50;99.90;;;;;;2105686;28;20016;-68
2021/07/30 03:27:06;;;;;;;7.30;3.30;;;18.50;99.90;;;;;;2105278;28;20028;-68
2021/07/30 03:28:06;;;;;;;5.38;3.15;;;18.50;99.90;;;;;;2104068;28;20016;-69
2021/07/30 03:29:07;;;;;;;4.50;3.20;;;18.50;99.90;;;;;;2097648;28;20052;-68
2021/07/30 03:30:09;;;;;;;4.57;3.20;;;18.50;99.90;;;;;;2103348;28;20027;-69
2021/07/30 03:31:10;;;;;;;8.15;2.97;;;18.40;99.90;;;;;;2104759;28;20463;-68
2021/07/30 03:32:10;;;;;;;6.40;3.00;;;18.40;99.90;;;;;;2113375;28;20438;-68
2021/07/30 03:33:11;;;;;;;8.43;3.42;;;18.40;99.90;;;;;;2111502;28;20018;-68
2021/07/30 03:34:11;;;;;;;6.60;3.20;;;18.40;99.90;;;;;;2105620;28;20043;-68
2021/07/30 03:35:12;;;;;;;10.40;3.75;;;18.40;99.90;;;;;;2105311;28;20043;-68
2021/07/30 03:36:13;;;;;;;7.57;3.15;;;18.40;99.90;;;;;;2106606;28;20051;-68
2021/07/30 03:37:14;;;;;;;7.60;3.63;;;18.40;99.90;;;;;;2109709;28;20115;-68
2021/07/30 03:38:14;;;;;;;6.47;3.35;;;18.40;99.90;;;;;;2105689;28;20368;-68
2021/07/30 03:39:15;;;;;;;7.75;3.10;;;18.40;99.90;;;;;;2105501;28;20042;-69
2021/07/30 03:40:15;;;;;;;8.30;3.58;;;18.40;99.90;;;;;;2105509;28;20081;-69
2021/07/30 03:41:16;;;;;;;5.40;3.38;;;18.40;99.90;;;;;;2105344;28;20483;-68
2021/07/30 03:42:17;;;;;;;5.28;3.22;;;18.30;99.90;;;;;;2104823;28;20082;-69
2021/07/30 03:43:17;;;;;;;6.00;3.13;;;18.30;99.90;;;;;;2103473;28;20034;-69
2021/07/30 03:44:18;;;;;;;6.75;3.20;;;18.30;99.90;;;;;;2097317;28;20036;-68
2021/07/30 03:45:18;;;;;;;5.97;3.65;;;18.30;99.90;;;;;;2106869;28;20471;-69
2021/07/30 03:46:19;;;;;;;6.75;3.42;;;18.30;99.90;;;;;;2113178;28;20116;-69
2021/07/30 03:47:19;;;;;;;5.28;3.20;;;18.30;99.90;;;;;;2105646;28;20092;-69
2021/07/30 03:48:20;;;;;;;4.53;2.97;;;18.30;99.90;;;;;;2112373;28;20082;-69
2021/07/30 03:49:20;;;;;;;7.30;3.60;;;18.20;99.90;;;;;;2110734;27;20189;-69
2021/07/30 03:50:21;;;;;;;5.90;3.40;;;18.30;99.90;;;;;;2105154;28;20028;-69
2021/07/30 03:51:21;;;;;;;7.05;3.28;;;18.20;99.90;;;;;;2104776;28;20479;-69
2021/07/30 03:52:22;;;;;;;4.43;3.10;;;18.20;99.90;;;;;;2104793;28;20083;-69
2021/07/30 03:53:22;;;;;;;4.18;2.90;;;18.20;99.90;;;;;;2104827;28;20024;-69
2021/07/30 03:54:23;;;;;;;7.28;3.75;;;18.20;99.90;;;;;;2105322;28;20027;-69
2021/07/30 03:55:23;;;;;;;5.90;3.13;;;18.20;99.90;;;;;;2102971;28;20021;-69
2021/07/30 03:56:24;;;;;;;9.15;3.28;;;18.20;99.90;;;;;;2105897;28;20035;-69
2021/07/30 03:57:24;;;;;;;7.18;3.22;;;18.20;99.90;;;;;;2107309;28;20059;-69
2021/07/30 03:58:25;;;;;;;7.45;2.72;;;18.20;99.90;;;;;;2112036;28;20482;-69
2021/07/30 03:59:26;;;;;;;5.35;3.40;;;18.20;99.90;;;;;;2114113;28;20027;-69
2021/07/30 04:00:26;;;;;;;8.40;3.03;;;18.10;99.90;;;;;;2105417;28;20074;-69
2021/07/30 04:01:27;;;;;;;6.63;3.35;;;18.10;99.90;;;;;;2104838;28;20035;-69
2021/07/30 04:02:27;;;;;;;6.13;3.75;;;18.10;99.90;;;;;;2104974;28;20035;-69
2021/07/30 04:03:28;;;;;;;8.43;3.50;;;18.20;99.90;;;;;;2104564;28;20932;-69
2021/07/30 04:04:28;;;;;;;5.68;3.17;;;18.10;99.90;;;;;;2106010;28;20081;-69
2021/07/30 04:05:29;;;;;;;5.90;3.20;;;18.10;99.90;;;;;;2110079;28;20032;-69
2021/07/30 04:06:30;;;;;;;5.28;3.72;;;18.10;99.90;;;;;;2112094;28;20024;-69
2021/07/30 04:07:30;;;;;;;8.13;3.70;;;18.10;99.90;;;;;;2110095;28;20425;-69
2021/07/30 04:08:35;;;;;;;7.65;3.53;;;18.10;99.90;;;;;;2106102;28;20020;-69
2021/07/30 04:09:36;;;;;;;6.38;3.70;;;18.10;99.90;;;;;;2105455;28;20020;-68
2021/07/30 04:10:36;;;;;;;4.65;2.85;;;18.10;99.90;;;;;;2105030;28;20136;-69
2021/07/30 04:11:38;;;;;;;9.85;4.03;;;18.10;99.90;;;;;;2105112;28;20053;-69
2021/07/30 04:12:38;;;;;;;6.45;3.60;;;18.10;99.90;;;;;;2105754;28;20020;-69
2021/07/30 04:13:39;;;;;;;4.57;3.20;;;18.10;99.90;;;;;;2113194;28;20038;-69
2021/07/30 04:14:39;;;;;;;8.63;3.95;;;18.10;99.90;;;;;;2110476;28;20033;-69
2021/07/30 04:15:40;;;;;;;5.53;3.20;;;18.10;99.90;;;;;;2113877;28;20039;-69
2021/07/30 04:16:40;;;;;;;8.27;3.92;;;18.10;99.90;;;;;;2113463;28;20037;-68
2021/07/30 04:17:42;;;;;;;6.35;3.35;;;18.10;99.90;;;;;;2113780;28;20024;-68
2021/07/30 04:18:42;;;;;;;7.63;3.95;;;18.00;99.90;;;;;;2113053;28;20040;-69
2021/07/30 04:19:43;;;;;;;6.78;3.95;;;18.00;99.90;;;;;;2111323;28;20012;-69
2021/07/30 04:20:44;;;;;;;5.03;3.13;;;18.10;99.90;;;;;;2107527;28;20020;-68
2021/07/30 04:21:45;;;;;;;6.78;3.90;;;18.00;99.90;;;;;;2113611;28;20102;-69
2021/07/30 04:22:45;;;;;;;7.72;3.60;;;18.10;99.90;;;;;;2113549;28;20020;-69
2021/07/30 04:23:46;;;;;;;11.32;4.07;;;18.00;99.90;;;;;;2113812;28;20019;-69
2021/07/30 04:24:46;;;;;;;9.43;4.03;;;18.10;99.90;;;;;;2103469;28;20028;-69
2021/07/30 04:25:47;;;;;;;11.35;4.60;;;18.00;99.90;;;;;;2105649;28;20077;-69
2021/07/30 04:26:47;;;;;;;8.25;4.07;;;18.00;99.90;;;;;;2111836;28;20085;-68
2021/07/30 04:27:48;;;;;;;6.97;3.60;;;18.00;99.90;;;;;;2111542;28;20069;-69
2021/07/30 04:28:48;;;;;;;6.85;3.63;;;18.00;99.90;;;;;;2109549;28;20463;-69
2021/07/30 04:29:49;;;;;;;6.45;3.50;;;18.00;99.90;;;;;;2113702;28;20024;-69
2021/07/30 04:30:49;;;;;;;9.75;4.20;;;18.00;99.90;;;;;;2109146;28;20044;-68
2021/07/30 04:31:50;;;;;;;11.65;3.60;;;18.00;99.90;;;;;;2104011;28;20081;-69
2021/07/30 04:32:51;;;;;;;7.82;4.10;;;18.00;99.90;;;;;;2104881;28;20055;-69
2021/07/30 04:33:51;;;;;;;9.40;3.53;;;18.00;99.90;;;;;;2111470;28;20049;-69
2021/07/30 04:34:52;;;;;;;7.22;3.65;;;18.00;99.90;;;;;;2113303;28;20015;-69
2021/07/30 04:35:52;;;;;;;6.25;3.40;;;18.00;99.90;;;;;;2113567;28;20024;-69
2021/07/30 04:36:53;;;;;;;6.45;3.38;;;18.00;99.90;;;;;;2112061;28;20012;-69
2021/07/30 04:37:57;;;;;;;8.77;3.63;;;18.00;99.90;;;;;;2105290;28;20024;-69
2021/07/30 04:38:58;;;;;;;8.27;3.90;;;18.00;99.90;;;;;;2105369;28;20012;-69
2021/07/30 04:39:58;;;;;;;7.32;3.83;;;18.00;99.90;;;;;;2104945;28;20024;-68
2021/07/30 04:41:03;;;;;;;8.60;3.90;;;18.10;99.90;;;;;;2104811;28;20032;-68
2021/07/30 04:42:04;;;;;;;7.20;3.35;;;18.00;99.90;;;;;;2104093;28;20024;-69
2021/07/30 04:43:05;;;;;;;5.95;3.35;;;18.00;99.90;;;;;;2104473;28;20032;-69
2021/07/30 04:44:06;;;;;;;7.47;4.00;;;18.10;99.90;;;;;;2104933;28;20012;-68
2021/07/30 04:45:07;;;;;;;6.88;3.83;;;18.10;99.90;;;;;;2100999;28;20025;-69
2021/07/30 04:46:18;;;;;;;7.47;3.90;;;18.10;99.90;;;;;;2096830;28;20059;-69
2021/07/30 04:47:18;;;;;;;4.53;3.17;;;18.10;99.90;;;;;;2113340;28;20364;-68
2021/07/30 04:48:19;;;;;;;8.93;3.53;;;18.10;99.90;;;;;;2113270;28;20057;-69
2021/07/30 04:49:19;;;;;;;8.98;4.10;;;18.10;99.90;;;;;;2110753;28;20035;-69
2021/07/30 04:50:20;;;;;;;6.72;3.60;;;18.10;99.90;;;;;;2102536;28;20031;-69
2021/07/30 04:51:20;;;;;;;8.43;3.60;;;18.10;99.90;;;;;;2104974;28;20035;-68
2021/07/30 04:52:21;;;;;;;7.93;3.97;;;18.10;99.90;;;;;;2104735;28;20391;-69
2021/07/30 04:53:21;;;;;;;6.00;3.78;;;18.10;99.90;;;;;;2104866;28;20025;-69
2021/07/30 04:54:22;;;;;;;12.80;4.28;;;18.10;99.90;;;;;;2111655;28;20028;-69
2021/07/30 04:55:23;;;;;;;6.05;3.58;;;18.20;99.90;;;;;;2108260;28;20032;-69
2021/07/30 04:56:23;;;;;;;11.63;4.13;;;18.20;99.90;;;;;;2107560;28;20505;-69
2021/07/30 04:57:24;;;;;;;7.45;3.95;;;18.20;99.90;;;;;;2104997;28;20023;-69
2021/07/30 04:58:24;;;;;;;12.32;3.80;;;18.20;99.90;;;;;;2104778;28;20024;-68
2021/07/30 04:59:25;;;;;;;6.55;3.38;;;18.20;99.90;;;;;;2104203;28;20079;-69
2021/07/30 05:00:25;;;;;;;7.10;3.67;;;18.20;99.90;;;;;;2104657;28;20036;-69
2021/07/30 05:01:26;;;;;;;6.85;3.30;;;18.20;99.90;;;;;;2109308;28;20048;-68
2021/07/30 05:02:26;;;;;;;7.97;4.00;;;18.30;99.90;;;;;;2104126;28;20031;-68
2021/07/30 05:03:29;;;;;;;7.22;3.70;;;18.30;99.90;;;;;;2111826;28;20024;-69
2021/07/30 05:04:29;;;;;;;4.65;3.20;;;18.30;99.90;;;;;;2105387;28;20028;-69
2021/07/30 05:05:30;;;;;;;7.53;3.60;;;18.30;99.90;;;;;;2104771;28;20031;-69
2021/07/30 05:06:31;;;;;;;8.77;4.35;;;18.30;99.90;;;;;;2106488;28;20473;-69
2021/07/30 05:07:31;;;;;;;11.30;3.75;;;18.30;99.90;;;;;;2102901;28;20111;-69
2021/07/30 05:08:32;;;;;;;7.25;3.28;;;18.40;99.90;;;;;;2103008;28;20028;-69
2021/07/30 05:09:32;;;;;;;6.53;3.22;;;18.30;99.90;;;;;;2105600;28;20023;-69
2021/07/30 05:10:33;;;;;;;6.35;3.55;;;18.40;99.90;;;;;;2104364;28;20094;-69
2021/07/30 05:11:34;;;;;;;6.68;3.40;;;18.40;99.90;;;;;;2105059;28;20028;-69
2021/07/30 05:12:35;;;;;;;7.38;3.55;;;18.40;99.90;;;;;;2099154;28;20361;-69
2021/07/30 05:13:35;;;;;;;7.72;3.78;;;18.40;99.90;;;;;;2101401;28;20094;-69
2021/07/30 05:14:36;;;;;;;5.65;3.50;;;18.40;99.90;;;;;;2105449;28;20027;-69
2021/07/30 05:15:36;;;;;;;8.90;3.78;;;18.50;99.90;;;;;;2105679;28;20091;-69
2021/07/30 05:16:37;;;;;;;8.35;3.72;;;18.50;99.90;;;;;;2104193;28;20011;-69
2021/07/30 05:17:37;;;;;;;6.65;3.75;;;18.50;99.90;;;;;;2103993;28;20068;-69